sensor_id;sensor_type;location;lat;lon;timestamp;P1;durP1;ratioP1;P2;durP2;ratioP2
8252;SDS011;61313;48.396;10.008;2023-08-21T00:02:15;10.03;;;9.00;;
8252;SDS011;61313;48.396;10.008;2023-08-21T00:04:41;10.63;;;9.60;;
8252;SDS011;61313;48.396;10.008;2023-08-21T00:07:06;10.37;;;9.30;;
8252;SDS011;61313;48.396;10.008;2023-08-21T00:09:34;10.80;;;9.70;;
8252;SDS011;61313;48.396;10.008;2023-08-21T00:11:59;11.53;;;10.13;;
8252;SDS011;61313;48.396;10.008;2023-08-21T00:14:24;11.30;;;10.07;;
8252;SDS011;61313;48.396;10.008;2023-08-21T00:16:50;10.80;;;9.70;;
8252;SDS011;61313;48.396;10.008;2023-08-21T00:19:15;11.47;;;10.33;;
8252;SDS011;61313;48.396;10.008;2023-08-21T00:21:40;10.43;;;9.43;;
8252;SDS011;61313;48.396;10.008;2023-08-21T00:24:06;10.73;;;9.73;;
8252;SDS011;61313;48.396;10.008;2023-08-21T00:26:31;11.20;;;10.20;;
8252;SDS011;61313;48.396;10.008;2023-08-21T00:28:57;9.80;;;8.90;;
8252;SDS011;61313;48.396;10.008;2023-08-21T00:31:22;10.53;;;9.60;;
8252;SDS011;61313;48.396;10.008;2023-08-21T00:33:47;11.23;;;10.27;;
8252;SDS011;61313;48.396;10.008;2023-08-21T00:36:13;11.87;;;10.30;;
8252;SDS011;61313;48.396;10.008;2023-08-21T00:38:38;11.03;;;10.10;;
8252;SDS011;61313;48.396;10.008;2023-08-21T00:41:05;16.00;;;10.40;;
8252;SDS011;61313;48.396;10.008;2023-08-21T00:43:30;10.20;;;9.40;;
8252;SDS011;61313;48.396;10.008;2023-08-21T00:45:55;10.53;;;9.53;;
8252;SDS011;61313;48.396;10.008;2023-08-21T00:48:21;9.50;;;8.70;;
8252;SDS011;61313;48.396;10.008;2023-08-21T00:50:46;10.53;;;9.53;;
8252;SDS011;61313;48.396;10.008;2023-08-21T00:53:12;10.77;;;9.37;;
8252;SDS011;61313;48.396;10.008;2023-08-21T00:55:38;12.20;;;8.97;;
8252;SDS011;61313;48.396;10.008;2023-08-21T00:58:04;9.63;;;8.83;;
8252;SDS011;61313;48.396;10.008;2023-08-21T01:00:30;10.37;;;9.57;;
8252;SDS011;61313;48.396;10.008;2023-08-21T01:02:55;11.33;;;10.03;;
8252;SDS011;61313;48.396;10.008;2023-08-21T01:05:22;9.53;;;8.70;;
8252;SDS011;61313;48.396;10.008;2023-08-21T01:07:50;10.93;;;9.80;;
8252;SDS011;61313;48.396;10.008;2023-08-21T01:10:23;13.63;;;11.43;;
8252;SDS011;61313;48.396;10.008;2023-08-21T01:13:01;13.57;;;9.97;;
8252;SDS011;61313;48.396;10.008;2023-08-21T01:15:31;12.13;;;9.90;;
8252;SDS011;61313;48.396;10.008;2023-08-21T01:17:56;10.30;;;9.30;;
8252;SDS011;61313;48.396;10.008;2023-08-21T01:20:22;9.60;;;8.80;;
8252;SDS011;61313;48.396;10.008;2023-08-21T01:22:48;11.00;;;10.07;;
8252;SDS011;61313;48.396;10.008;2023-08-21T01:25:15;10.63;;;9.17;;
8252;SDS011;61313;48.396;10.008;2023-08-21T01:27:42;12.90;;;9.97;;
8252;SDS011;61313;48.396;10.008;2023-08-21T01:30:10;10.73;;;9.73;;
8252;SDS011;61313;48.396;10.008;2023-08-21T01:32:53;11.37;;;10.37;;
8252;SDS011;61313;48.396;10.008;2023-08-21T01:35:30;13.40;;;10.83;;
8252;SDS011;61313;48.396;10.008;2023-08-21T01:37:58;11.03;;;9.93;;
8252;SDS011;61313;48.396;10.008;2023-08-21T01:40:24;10.47;;;9.50;;
8252;SDS011;61313;48.396;10.008;2023-08-21T01:42:50;11.50;;;9.60;;
8252;SDS011;61313;48.396;10.008;2023-08-21T01:45:17;10.97;;;9.97;;
8252;SDS011;61313;48.396;10.008;2023-08-21T01:47:43;12.47;;;10.60;;
8252;SDS011;61313;48.396;10.008;2023-08-21T01:50:08;12.07;;;10.30;;
8252;SDS011;61313;48.396;10.008;2023-08-21T01:52:34;10.83;;;9.67;;
8252;SDS011;61313;48.396;10.008;2023-08-21T01:54:59;13.93;;;10.43;;
8252;SDS011;61313;48.396;10.008;2023-08-21T01:57:25;10.43;;;9.53;;
8252;SDS011;61313;48.396;10.008;2023-08-21T01:59:50;10.00;;;9.20;;
8252;SDS011;61313;48.396;10.008;2023-08-21T02:02:16;11.60;;;10.50;;
8252;SDS011;61313;48.396;10.008;2023-08-21T02:04:41;10.70;;;9.73;;
8252;SDS011;61313;48.396;10.008;2023-08-21T02:07:07;9.83;;;9.03;;
8252;SDS011;61313;48.396;10.008;2023-08-21T02:09:35;15.13;;;10.00;;
8252;SDS011;61313;48.396;10.008;2023-08-21T02:12:00;11.07;;;9.33;;
8252;SDS011;61313;48.396;10.008;2023-08-21T02:14:26;9.83;;;8.90;;
8252;SDS011;61313;48.396;10.008;2023-08-21T02:16:51;10.23;;;9.30;;
8252;SDS011;61313;48.396;10.008;2023-08-21T02:19:16;10.93;;;9.93;;
8252;SDS011;61313;48.396;10.008;2023-08-21T02:21:42;11.77;;;10.03;;
8252;SDS011;61313;48.396;10.008;2023-08-21T02:24:07;16.27;;;10.80;;
8252;SDS011;61313;48.396;10.008;2023-08-21T02:26:33;13.30;;;9.60;;
8252;SDS011;61313;48.396;10.008;2023-08-21T02:28:58;10.73;;;9.73;;
8252;SDS011;61313;48.396;10.008;2023-08-21T02:31:24;11.57;;;10.30;;
8252;SDS011;61313;48.396;10.008;2023-08-21T02:33:49;10.33;;;9.43;;
8252;SDS011;61313;48.396;10.008;2023-08-21T02:36:17;12.07;;;10.40;;
8252;SDS011;61313;48.396;10.008;2023-08-21T02:38:42;13.47;;;10.40;;
8252;SDS011;61313;48.396;10.008;2023-08-21T02:41:08;11.77;;;10.30;;
8252;SDS011;61313;48.396;10.008;2023-08-21T02:43:33;11.67;;;10.20;;
8252;SDS011;61313;48.396;10.008;2023-08-21T02:45:59;11.70;;;9.77;;
8252;SDS011;61313;48.396;10.008;2023-08-21T02:48:24;11.10;;;9.67;;
8252;SDS011;61313;48.396;10.008;2023-08-21T02:50:50;10.93;;;10.00;;
8252;SDS011;61313;48.396;10.008;2023-08-21T02:53:15;11.77;;;10.63;;
8252;SDS011;61313;48.396;10.008;2023-08-21T02:55:40;10.17;;;9.37;;
8252;SDS011;61313;48.396;10.008;2023-08-21T02:58:06;11.57;;;10.57;;
8252;SDS011;61313;48.396;10.008;2023-08-21T03:00:31;12.70;;;11.37;;
8252;SDS011;61313;48.396;10.008;2023-08-21T03:02:57;11.83;;;10.60;;
8252;SDS011;61313;48.396;10.008;2023-08-21T03:05:22;10.50;;;9.50;;
8252;SDS011;61313;48.396;10.008;2023-08-21T03:07:47;17.13;;;9.80;;
8252;SDS011;61313;48.396;10.008;2023-08-21T03:10:13;12.50;;;11.30;;
8252;SDS011;61313;48.396;10.008;2023-08-21T03:12:38;15.07;;;10.87;;
8252;SDS011;61313;48.396;10.008;2023-08-21T03:15:04;10.80;;;9.70;;
8252;SDS011;61313;48.396;10.008;2023-08-21T03:17:30;19.80;;;11.50;;
8252;SDS011;61313;48.396;10.008;2023-08-21T03:19:55;13.27;;;11.90;;
8252;SDS011;61313;48.396;10.008;2023-08-21T03:22:21;13.27;;;10.23;;
8252;SDS011;61313;48.396;10.008;2023-08-21T03:24:47;14.70;;;12.20;;
8252;SDS011;61313;48.396;10.008;2023-08-21T03:27:14;20.10;;;12.33;;
8252;SDS011;61313;48.396;10.008;2023-08-21T03:29:41;13.07;;;10.23;;
8252;SDS011;61313;48.396;10.008;2023-08-21T03:32:09;15.50;;;11.23;;
8252;SDS011;61313;48.396;10.008;2023-08-21T03:34:34;15.73;;;10.47;;
8252;SDS011;61313;48.396;10.008;2023-08-21T03:37:00;16.20;;;10.93;;
8252;SDS011;61313;48.396;10.008;2023-08-21T03:39:25;11.90;;;10.70;;
8252;SDS011;61313;48.396;10.008;2023-08-21T03:41:50;13.37;;;11.13;;
8252;SDS011;61313;48.396;10.008;2023-08-21T03:44:16;16.93;;;10.90;;
8252;SDS011;61313;48.396;10.008;2023-08-21T03:46:44;11.17;;;10.07;;
8252;SDS011;61313;48.396;10.008;2023-08-21T03:49:12;12.23;;;11.03;;
8252;SDS011;61313;48.396;10.008;2023-08-21T03:51:37;23.70;;;12.07;;
8252;SDS011;61313;48.396;10.008;2023-08-21T03:54:03;14.03;;;11.53;;
8252;SDS011;61313;48.396;10.008;2023-08-21T03:56:30;13.27;;;11.83;;
8252;SDS011;61313;48.396;10.008;2023-08-21T03:58:55;18.97;;;12.40;;
8252;SDS011;61313;48.396;10.008;2023-08-21T04:01:21;52.10;;;15.10;;
8252;SDS011;61313;48.396;10.008;2023-08-21T04:03:46;39.40;;;13.73;;
8252;SDS011;61313;48.396;10.008;2023-08-21T04:06:12;27.53;;;12.23;;
8252;SDS011;61313;48.396;10.008;2023-08-21T04:08:37;24.43;;;12.23;;
8252;SDS011;61313;48.396;10.008;2023-08-21T04:11:02;20.37;;;12.40;;
8252;SDS011;61313;48.396;10.008;2023-08-21T04:13:29;15.43;;;11.43;;
8252;SDS011;61313;48.396;10.008;2023-08-21T04:15:54;14.50;;;11.70;;
8252;SDS011;61313;48.396;10.008;2023-08-21T04:18:21;18.80;;;11.60;;
8252;SDS011;61313;48.396;10.008;2023-08-21T04:20:50;21.00;;;13.23;;
8252;SDS011;61313;48.396;10.008;2023-08-21T04:23:15;17.43;;;11.03;;
8252;SDS011;61313;48.396;10.008;2023-08-21T04:25:41;15.30;;;12.50;;
8252;SDS011;61313;48.396;10.008;2023-08-21T04:28:08;15.80;;;10.90;;
8252;SDS011;61313;48.396;10.008;2023-08-21T04:30:33;19.87;;;12.27;;
8252;SDS011;61313;48.396;10.008;2023-08-21T04:32:59;35.90;;;13.37;;
8252;SDS011;61313;48.396;10.008;2023-08-21T04:35:25;24.07;;;13.40;;
8252;SDS011;61313;48.396;10.008;2023-08-21T04:37:51;19.60;;;11.57;;
8252;SDS011;61313;48.396;10.008;2023-08-21T04:40:16;20.87;;;12.60;;
8252;SDS011;61313;48.396;10.008;2023-08-21T04:42:45;16.53;;;11.57;;
8252;SDS011;61313;48.396;10.008;2023-08-21T04:45:10;77.10;;;16.00;;
8252;SDS011;61313;48.396;10.008;2023-08-21T04:47:35;33.17;;;12.47;;
8252;SDS011;61313;48.396;10.008;2023-08-21T04:50:01;16.13;;;10.73;;
8252;SDS011;61313;48.396;10.008;2023-08-21T04:52:26;16.00;;;11.90;;
8252;SDS011;61313;48.396;10.008;2023-08-21T04:54:52;41.63;;;15.23;;
8252;SDS011;61313;48.396;10.008;2023-08-21T04:57:18;29.10;;;13.70;;
8252;SDS011;61313;48.396;10.008;2023-08-21T04:59:44;14.67;;;13.10;;
8252;SDS011;61313;48.396;10.008;2023-08-21T05:02:09;33.70;;;12.70;;
8252;SDS011;61313;48.396;10.008;2023-08-21T05:04:37;55.70;;;14.80;;
8252;SDS011;61313;48.396;10.008;2023-08-21T05:07:03;21.00;;;12.73;;
8252;SDS011;61313;48.396;10.008;2023-08-21T05:09:30;26.73;;;12.40;;
8252;SDS011;61313;48.396;10.008;2023-08-21T05:11:55;72.53;;;16.60;;
8252;SDS011;61313;48.396;10.008;2023-08-21T05:14:21;36.80;;;13.40;;
8252;SDS011;61313;48.396;10.008;2023-08-21T05:16:48;40.27;;;13.97;;
8252;SDS011;61313;48.396;10.008;2023-08-21T05:19:14;53.20;;;15.87;;
8252;SDS011;61313;48.396;10.008;2023-08-21T05:21:40;49.20;;;14.70;;
8252;SDS011;61313;48.396;10.008;2023-08-21T05:24:05;54.60;;;15.63;;
8252;SDS011;61313;48.396;10.008;2023-08-21T05:26:30;17.07;;;12.00;;
8252;SDS011;61313;48.396;10.008;2023-08-21T05:28:56;18.17;;;10.73;;
8252;SDS011;61313;48.396;10.008;2023-08-21T05:31:21;17.73;;;11.30;;
8252;SDS011;61313;48.396;10.008;2023-08-21T05:33:47;16.93;;;11.00;;
8252;SDS011;61313;48.396;10.008;2023-08-21T05:36:12;81.30;;;18.30;;
8252;SDS011;61313;48.396;10.008;2023-08-21T05:38:38;31.30;;;13.17;;
8252;SDS011;61313;48.396;10.008;2023-08-21T05:41:03;30.83;;;12.47;;
8252;SDS011;61313;48.396;10.008;2023-08-21T05:43:28;30.00;;;14.33;;
8252;SDS011;61313;48.396;10.008;2023-08-21T05:45:54;21.50;;;12.27;;
8252;SDS011;61313;48.396;10.008;2023-08-21T05:48:19;20.43;;;13.10;;
8252;SDS011;61313;48.396;10.008;2023-08-21T05:50:44;25.17;;;12.73;;
8252;SDS011;61313;48.396;10.008;2023-08-21T05:53:10;47.30;;;14.13;;
8252;SDS011;61313;48.396;10.008;2023-08-21T05:55:38;46.17;;;13.80;;
8252;SDS011;61313;48.396;10.008;2023-08-21T05:58:05;61.57;;;15.50;;
8252;SDS011;61313;48.396;10.008;2023-08-21T06:00:30;37.80;;;14.00;;
8252;SDS011;61313;48.396;10.008;2023-08-21T06:02:55;17.80;;;11.13;;
8252;SDS011;61313;48.396;10.008;2023-08-21T06:05:21;18.60;;;11.53;;
8252;SDS011;61313;48.396;10.008;2023-08-21T06:07:46;20.73;;;11.03;;
8252;SDS011;61313;48.396;10.008;2023-08-21T06:10:12;43.33;;;12.93;;
8252;SDS011;61313;48.396;10.008;2023-08-21T06:12:38;33.73;;;11.87;;
8252;SDS011;61313;48.396;10.008;2023-08-21T06:15:05;24.33;;;10.57;;
8252;SDS011;61313;48.396;10.008;2023-08-21T06:17:32;25.13;;;12.50;;
8252;SDS011;61313;48.396;10.008;2023-08-21T06:19:58;18.63;;;12.10;;
8252;SDS011;61313;48.396;10.008;2023-08-21T06:22:24;13.80;;;10.60;;
8252;SDS011;61313;48.396;10.008;2023-08-21T06:24:50;20.67;;;11.40;;
8252;SDS011;61313;48.396;10.008;2023-08-21T06:27:15;52.40;;;13.83;;
8252;SDS011;61313;48.396;10.008;2023-08-21T06:29:40;17.43;;;10.80;;
8252;SDS011;61313;48.396;10.008;2023-08-21T06:32:06;27.30;;;11.90;;
8252;SDS011;61313;48.396;10.008;2023-08-21T06:34:31;11.97;;;9.90;;
8252;SDS011;61313;48.396;10.008;2023-08-21T06:36:56;47.03;;;13.53;;
8252;SDS011;61313;48.396;10.008;2023-08-21T06:39:22;12.00;;;10.07;;
8252;SDS011;61313;48.396;10.008;2023-08-21T06:41:47;12.33;;;10.60;;
8252;SDS011;61313;48.396;10.008;2023-08-21T06:44:13;17.43;;;11.20;;
8252;SDS011;61313;48.396;10.008;2023-08-21T06:46:39;12.17;;;10.63;;
8252;SDS011;61313;48.396;10.008;2023-08-21T06:49:05;26.50;;;11.50;;
8252;SDS011;61313;48.396;10.008;2023-08-21T06:51:30;18.70;;;10.50;;
8252;SDS011;61313;48.396;10.008;2023-08-21T06:53:56;20.63;;;11.17;;
8252;SDS011;61313;48.396;10.008;2023-08-21T06:56:21;12.23;;;10.73;;
8252;SDS011;61313;48.396;10.008;2023-08-21T06:58:47;12.60;;;10.10;;
8252;SDS011;61313;48.396;10.008;2023-08-21T07:01:12;23.73;;;11.27;;
8252;SDS011;61313;48.396;10.008;2023-08-21T07:03:37;13.83;;;11.20;;
8252;SDS011;61313;48.396;10.008;2023-08-21T07:06:03;18.23;;;9.93;;
8252;SDS011;61313;48.396;10.008;2023-08-21T07:08:28;10.27;;;9.30;;
8252;SDS011;61313;48.396;10.008;2023-08-21T07:10:54;11.80;;;9.73;;
8252;SDS011;61313;48.396;10.008;2023-08-21T07:13:19;28.47;;;13.07;;
8252;SDS011;61313;48.396;10.008;2023-08-21T07:15:45;57.43;;;14.07;;
8252;SDS011;61313;48.396;10.008;2023-08-21T07:18:11;25.80;;;12.47;;
8252;SDS011;61313;48.396;10.008;2023-08-21T07:20:36;21.70;;;11.67;;
8252;SDS011;61313;48.396;10.008;2023-08-21T07:23:02;32.23;;;13.23;;
8252;SDS011;61313;48.396;10.008;2023-08-21T07:25:28;16.30;;;11.30;;
8252;SDS011;61313;48.396;10.008;2023-08-21T07:27:53;16.80;;;12.37;;
8252;SDS011;61313;48.396;10.008;2023-08-21T07:30:19;24.87;;;12.00;;
8252;SDS011;61313;48.396;10.008;2023-08-21T07:32:45;17.63;;;11.63;;
8252;SDS011;61313;48.396;10.008;2023-08-21T07:35:11;20.97;;;10.80;;
8252;SDS011;61313;48.396;10.008;2023-08-21T07:37:36;20.63;;;11.17;;
8252;SDS011;61313;48.396;10.008;2023-08-21T07:40:02;20.17;;;10.97;;
8252;SDS011;61313;48.396;10.008;2023-08-21T07:42:28;27.20;;;13.67;;
8252;SDS011;61313;48.396;10.008;2023-08-21T07:44:53;25.83;;;11.50;;
8252;SDS011;61313;48.396;10.008;2023-08-21T07:47:18;24.53;;;12.17;;
8252;SDS011;61313;48.396;10.008;2023-08-21T07:49:44;22.97;;;10.30;;
8252;SDS011;61313;48.396;10.008;2023-08-21T07:52:09;16.83;;;10.30;;
8252;SDS011;61313;48.396;10.008;2023-08-21T07:54:35;22.03;;;11.10;;
8252;SDS011;61313;48.396;10.008;2023-08-21T07:57:00;11.63;;;10.63;;
8252;SDS011;61313;48.396;10.008;2023-08-21T07:59:25;27.30;;;11.80;;
8252;SDS011;61313;48.396;10.008;2023-08-21T08:01:51;21.20;;;11.87;;
8252;SDS011;61313;48.396;10.008;2023-08-21T08:04:17;31.57;;;15.03;;
8252;SDS011;61313;48.396;10.008;2023-08-21T08:06:42;18.30;;;10.80;;
8252;SDS011;61313;48.396;10.008;2023-08-21T08:09:08;28.63;;;10.87;;
8252;SDS011;61313;48.396;10.008;2023-08-21T08:11:33;22.90;;;10.87;;
8252;SDS011;61313;48.396;10.008;2023-08-21T08:13:58;20.93;;;10.87;;
8252;SDS011;61313;48.396;10.008;2023-08-21T08:16:24;15.53;;;10.67;;
8252;SDS011;61313;48.396;10.008;2023-08-21T08:18:49;12.00;;;10.83;;
8252;SDS011;61313;48.396;10.008;2023-08-21T08:21:15;12.57;;;10.20;;
8252;SDS011;61313;48.396;10.008;2023-08-21T08:23:40;15.77;;;10.70;;
8252;SDS011;61313;48.396;10.008;2023-08-21T08:26:05;13.20;;;12.00;;
8252;SDS011;61313;48.396;10.008;2023-08-21T08:28:32;13.13;;;11.80;;
8252;SDS011;61313;48.396;10.008;2023-08-21T08:30:57;20.90;;;11.47;;
8252;SDS011;61313;48.396;10.008;2023-08-21T08:33:23;28.93;;;11.70;;
8252;SDS011;61313;48.396;10.008;2023-08-21T08:35:48;17.53;;;10.93;;
8252;SDS011;61313;48.396;10.008;2023-08-21T08:38:14;22.93;;;12.60;;
8252;SDS011;61313;48.396;10.008;2023-08-21T08:40:44;17.27;;;11.10;;
8252;SDS011;61313;48.396;10.008;2023-08-21T08:43:11;12.80;;;11.47;;
8252;SDS011;61313;48.396;10.008;2023-08-21T08:45:38;17.60;;;11.10;;
8252;SDS011;61313;48.396;10.008;2023-08-21T08:48:05;16.57;;;11.67;;
8252;SDS011;61313;48.396;10.008;2023-08-21T08:50:32;14.20;;;10.30;;
8252;SDS011;61313;48.396;10.008;2023-08-21T08:52:58;18.00;;;9.70;;
8252;SDS011;61313;48.396;10.008;2023-08-21T08:55:25;15.17;;;10.13;;
8252;SDS011;61313;48.396;10.008;2023-08-21T08:57:51;12.20;;;10.77;;
8252;SDS011;61313;48.396;10.008;2023-08-21T09:00:17;16.63;;;10.63;;
8252;SDS011;61313;48.396;10.008;2023-08-21T09:02:43;14.10;;;9.93;;
8252;SDS011;61313;48.396;10.008;2023-08-21T09:05:08;15.33;;;10.37;;
8252;SDS011;61313;48.396;10.008;2023-08-21T09:07:35;11.00;;;9.90;;
8252;SDS011;61313;48.396;10.008;2023-08-21T09:10:01;18.43;;;11.60;;
8252;SDS011;61313;48.396;10.008;2023-08-21T09:12:26;11.97;;;10.67;;
8252;SDS011;61313;48.396;10.008;2023-08-21T09:14:52;23.27;;;11.73;;
8252;SDS011;61313;48.396;10.008;2023-08-21T09:17:17;22.90;;;10.60;;
8252;SDS011;61313;48.396;10.008;2023-08-21T09:19:43;17.43;;;10.37;;
8252;SDS011;61313;48.396;10.008;2023-08-21T09:24:36;10.73;;;9.73;;
8252;SDS011;61313;48.396;10.008;2023-08-21T09:27:02;15.80;;;10.67;;
8252;SDS011;61313;48.396;10.008;2023-08-21T09:29:37;11.20;;;10.07;;
8252;SDS011;61313;48.396;10.008;2023-08-21T09:32:04;11.20;;;10.10;;
8252;SDS011;61313;48.396;10.008;2023-08-21T09:34:33;11.63;;;10.43;;
8252;SDS011;61313;48.396;10.008;2023-08-21T09:37:06;11.50;;;9.80;;
8252;SDS011;61313;48.396;10.008;2023-08-21T09:39:35;11.50;;;10.40;;
8252;SDS011;61313;48.396;10.008;2023-08-21T09:42:07;12.63;;;10.40;;
8252;SDS011;61313;48.396;10.008;2023-08-21T09:44:40;11.37;;;9.83;;
8252;SDS011;61313;48.396;10.008;2023-08-21T09:47:11;12.20;;;10.87;;
8252;SDS011;61313;48.396;10.008;2023-08-21T09:49:37;11.40;;;10.30;;
8252;SDS011;61313;48.396;10.008;2023-08-21T09:52:07;13.43;;;9.53;;
8252;SDS011;61313;48.396;10.008;2023-08-21T09:54:39;11.60;;;10.40;;
8252;SDS011;61313;48.396;10.008;2023-08-21T09:57:06;21.90;;;10.60;;
8252;SDS011;61313;48.396;10.008;2023-08-21T09:59:31;13.10;;;9.83;;
8252;SDS011;61313;48.396;10.008;2023-08-21T10:02:00;11.20;;;10.03;;
8252;SDS011;61313;48.396;10.008;2023-08-21T10:04:28;10.37;;;9.30;;
8252;SDS011;61313;48.396;10.008;2023-08-21T10:06:57;18.83;;;9.77;;
8252;SDS011;61313;48.396;10.008;2023-08-21T10:09:24;10.30;;;9.40;;
8252;SDS011;61313;48.396;10.008;2023-08-21T10:11:52;11.33;;;10.30;;
8252;SDS011;61313;48.396;10.008;2023-08-21T10:14:19;10.50;;;9.50;;
8252;SDS011;61313;48.396;10.008;2023-08-21T10:16:46;11.27;;;10.17;;
8252;SDS011;61313;48.396;10.008;2023-08-21T10:19:13;11.20;;;10.10;;
8252;SDS011;61313;48.396;10.008;2023-08-21T10:21:39;10.47;;;9.47;;
8252;SDS011;61313;48.396;10.008;2023-08-21T10:24:04;12.27;;;9.30;;
8252;SDS011;61313;48.396;10.008;2023-08-21T10:26:30;12.00;;;9.17;;
8252;SDS011;61313;48.396;10.008;2023-08-21T10:28:58;10.60;;;9.53;;
8252;SDS011;61313;48.396;10.008;2023-08-21T10:31:28;11.20;;;10.20;;
8252;SDS011;61313;48.396;10.008;2023-08-21T10:33:55;10.80;;;9.80;;
8252;SDS011;61313;48.396;10.008;2023-08-21T10:41:53;15.23;;;9.97;;
8252;SDS011;61313;48.396;10.008;2023-08-21T10:49:37;9.77;;;8.77;;
8252;SDS011;61313;48.396;10.008;2023-08-21T10:52:03;9.90;;;7.57;;
8252;SDS011;61313;48.396;10.008;2023-08-21T10:54:36;11.70;;;8.90;;
8252;SDS011;61313;48.396;10.008;2023-08-21T10:57:07;10.00;;;9.00;;
8252;SDS011;61313;48.396;10.008;2023-08-21T10:59:33;11.17;;;9.70;;
8252;SDS011;61313;48.396;10.008;2023-08-21T11:01:58;11.10;;;10.10;;
8252;SDS011;61313;48.396;10.008;2023-08-21T11:04:24;11.13;;;9.97;;
8252;SDS011;61313;48.396;10.008;2023-08-21T11:06:51;10.30;;;9.30;;
8252;SDS011;61313;48.396;10.008;2023-08-21T11:09:17;11.17;;;9.13;;
8252;SDS011;61313;48.396;10.008;2023-08-21T11:11:43;11.87;;;9.60;;
8252;SDS011;61313;48.396;10.008;2023-08-21T11:14:08;11.60;;;8.87;;
8252;SDS011;61313;48.396;10.008;2023-08-21T11:16:34;10.00;;;9.03;;
8252;SDS011;61313;48.396;10.008;2023-08-21T11:19:02;16.87;;;10.20;;
8252;SDS011;61313;48.396;10.008;2023-08-21T11:21:29;10.43;;;8.40;;
8252;SDS011;61313;48.396;10.008;2023-08-21T11:23:55;9.40;;;8.40;;
8252;SDS011;61313;48.396;10.008;2023-08-21T11:26:20;9.47;;;8.57;;
8252;SDS011;61313;48.396;10.008;2023-08-21T11:28:46;12.57;;;8.70;;
8252;SDS011;61313;48.396;10.008;2023-08-21T11:31:12;10.57;;;9.53;;
8252;SDS011;61313;48.396;10.008;2023-08-21T11:33:38;14.03;;;9.33;;
8252;SDS011;61313;48.396;10.008;2023-08-21T11:36:04;10.53;;;9.03;;
8252;SDS011;61313;48.396;10.008;2023-08-21T11:38:30;10.50;;;8.60;;
8252;SDS011;61313;48.396;10.008;2023-08-21T11:43:24;9.73;;;8.87;;
8252;SDS011;61313;48.396;10.008;2023-08-21T11:46:03;9.37;;;8.57;;
8252;SDS011;61313;48.396;10.008;2023-08-21T11:48:29;10.10;;;9.10;;
8252;SDS011;61313;48.396;10.008;2023-08-21T11:50:55;9.60;;;8.30;;
8252;SDS011;61313;48.396;10.008;2023-08-21T11:56:17;9.90;;;9.10;;
8252;SDS011;61313;48.396;10.008;2023-08-21T11:58:43;22.27;;;9.87;;
8252;SDS011;61313;48.396;10.008;2023-08-21T12:01:20;10.57;;;8.60;;
8252;SDS011;61313;48.396;10.008;2023-08-21T12:03:46;10.23;;;8.67;;
8252;SDS011;61313;48.396;10.008;2023-08-21T12:06:19;9.40;;;8.60;;
8252;SDS011;61313;48.396;10.008;2023-08-21T12:08:45;12.27;;;9.53;;
8252;SDS011;61313;48.396;10.008;2023-08-21T12:11:10;10.67;;;9.40;;
8252;SDS011;61313;48.396;10.008;2023-08-21T12:13:36;11.73;;;8.90;;
8252;SDS011;61313;48.396;10.008;2023-08-21T12:16:02;14.03;;;8.80;;
8252;SDS011;61313;48.396;10.008;2023-08-21T12:18:28;21.53;;;8.87;;
8252;SDS011;61313;48.396;10.008;2023-08-21T12:20:54;11.20;;;8.30;;
8252;SDS011;61313;48.396;10.008;2023-08-21T12:23:19;11.10;;;8.07;;
8252;SDS011;61313;48.396;10.008;2023-08-21T12:25:45;9.67;;;8.63;;
8252;SDS011;61313;48.396;10.008;2023-08-21T12:28:11;11.50;;;9.07;;
8252;SDS011;61313;48.396;10.008;2023-08-21T12:30:36;12.70;;;8.37;;
8252;SDS011;61313;48.396;10.008;2023-08-21T12:33:02;13.17;;;9.20;;
8252;SDS011;61313;48.396;10.008;2023-08-21T12:35:28;9.60;;;8.70;;
8252;SDS011;61313;48.396;10.008;2023-08-21T12:37:56;11.40;;;8.70;;
8252;SDS011;61313;48.396;10.008;2023-08-21T12:40:30;11.73;;;8.90;;
8252;SDS011;61313;48.396;10.008;2023-08-21T12:42:57;9.77;;;8.90;;
8252;SDS011;61313;48.396;10.008;2023-08-21T12:45:22;11.23;;;9.20;;
8252;SDS011;61313;48.396;10.008;2023-08-21T12:47:47;11.33;;;8.90;;
8252;SDS011;61313;48.396;10.008;2023-08-21T12:50:13;10.67;;;8.60;;
8252;SDS011;61313;48.396;10.008;2023-08-21T12:52:38;9.73;;;8.83;;
8252;SDS011;61313;48.396;10.008;2023-08-21T12:55:06;16.40;;;9.70;;
8252;SDS011;61313;48.396;10.008;2023-08-21T12:57:32;12.00;;;8.27;;
8252;SDS011;61313;48.396;10.008;2023-08-21T12:59:57;10.13;;;9.17;;
8252;SDS011;61313;48.396;10.008;2023-08-21T13:02:22;8.70;;;7.80;;
8252;SDS011;61313;48.396;10.008;2023-08-21T13:04:48;10.17;;;9.17;;
8252;SDS011;61313;48.396;10.008;2023-08-21T13:07:14;10.03;;;8.20;;
8252;SDS011;61313;48.396;10.008;2023-08-21T13:09:39;10.47;;;9.67;;
8252;SDS011;61313;48.396;10.008;2023-08-21T13:12:05;12.70;;;9.70;;
8252;SDS011;61313;48.396;10.008;2023-08-21T13:14:30;9.73;;;8.73;;
8252;SDS011;61313;48.396;10.008;2023-08-21T13:16:56;11.00;;;9.97;;
8252;SDS011;61313;48.396;10.008;2023-08-21T13:19:21;9.43;;;8.57;;
8252;SDS011;61313;48.396;10.008;2023-08-21T13:21:46;9.27;;;8.40;;
8252;SDS011;61313;48.396;10.008;2023-08-21T13:24:12;8.93;;;8.03;;
8252;SDS011;61313;48.396;10.008;2023-08-21T13:26:37;10.00;;;8.90;;
8252;SDS011;61313;48.396;10.008;2023-08-21T13:29:02;9.90;;;8.90;;
8252;SDS011;61313;48.396;10.008;2023-08-21T13:31:28;9.43;;;8.50;;
8252;SDS011;61313;48.396;10.008;2023-08-21T13:33:56;10.30;;;9.10;;
8252;SDS011;61313;48.396;10.008;2023-08-21T13:36:21;10.57;;;9.47;;
8252;SDS011;61313;48.396;10.008;2023-08-21T13:38:46;13.37;;;9.10;;
8252;SDS011;61313;48.396;10.008;2023-08-21T13:41:12;18.67;;;8.97;;
8252;SDS011;61313;48.396;10.008;2023-08-21T13:43:37;16.60;;;9.27;;
8252;SDS011;61313;48.396;10.008;2023-08-21T13:46:04;13.90;;;9.10;;
8252;SDS011;61313;48.396;10.008;2023-08-21T13:48:29;10.77;;;9.70;;
8252;SDS011;61313;48.396;10.008;2023-08-21T13:50:58;14.30;;;9.73;;
8252;SDS011;61313;48.396;10.008;2023-08-21T13:53:23;10.70;;;9.60;;
8252;SDS011;61313;48.396;10.008;2023-08-21T13:55:49;9.80;;;8.90;;
8252;SDS011;61313;48.396;10.008;2023-08-21T13:58:15;8.73;;;8.10;;
8252;SDS011;61313;48.396;10.008;2023-08-21T14:00:41;9.93;;;9.03;;
8252;SDS011;61313;48.396;10.008;2023-08-21T14:03:06;20.53;;;11.20;;
8252;SDS011;61313;48.396;10.008;2023-08-21T14:05:32;10.10;;;9.10;;
8252;SDS011;61313;48.396;10.008;2023-08-21T14:07:58;17.53;;;9.37;;
8252;SDS011;61313;48.396;10.008;2023-08-21T14:10:24;17.00;;;9.13;;
8252;SDS011;61313;48.396;10.008;2023-08-21T14:12:50;9.97;;;8.17;;
8252;SDS011;61313;48.396;10.008;2023-08-21T14:15:16;14.83;;;9.73;;
8252;SDS011;61313;48.396;10.008;2023-08-21T14:18:02;18.47;;;9.13;;
8252;SDS011;61313;48.396;10.008;2023-08-21T14:20:28;9.70;;;7.80;;
8252;SDS011;61313;48.396;10.008;2023-08-21T14:22:53;8.47;;;7.73;;
8252;SDS011;61313;48.396;10.008;2023-08-21T14:25:19;10.13;;;7.97;;
8252;SDS011;61313;48.396;10.008;2023-08-21T14:27:44;10.70;;;8.57;;
8252;SDS011;61313;48.396;10.008;2023-08-21T14:30:10;10.03;;;8.70;;
8252;SDS011;61313;48.396;10.008;2023-08-21T14:32:35;22.57;;;10.37;;
8252;SDS011;61313;48.396;10.008;2023-08-21T14:35:02;11.10;;;9.23;;
8252;SDS011;61313;48.396;10.008;2023-08-21T14:37:28;22.87;;;10.03;;
8252;SDS011;61313;48.396;10.008;2023-08-21T14:39:54;9.07;;;8.13;;
8252;SDS011;61313;48.396;10.008;2023-08-21T14:42:19;11.00;;;9.60;;